sensor_id;sensor_type;location;lat;lon;timestamp;pressure;altitude;pressure_sealevel;temperature;humidity
24013;BME280;12220;50.194;18.948;2022-08-01T00:01:21;101713.49;;;16.25;79.22
24013;BME280;12220;50.194;18.948;2022-08-01T00:03:33;101716.38;;;16.23;79.22
24013;BME280;12220;50.194;18.948;2022-08-01T00:05:34;101718.40;;;16.21;79.24
24013;BME280;12220;50.194;18.948;2022-08-01T00:07:36;101713.86;;;16.20;79.26
24013;BME280;12220;50.194;18.948;2022-08-01T00:09:37;101705.69;;;16.18;79.24
24013;BME280;12220;50.194;18.948;2022-08-01T00:11:47;101710.48;;;16.16;79.22
24013;BME280;12220;50.194;18.948;2022-08-01T00:13:49;101710.68;;;16.13;79.28
24013;BME280;12220;50.194;18.948;2022-08-01T00:15:50;101718.97;;;16.13;79.20
24013;BME280;12220;50.194;18.948;2022-08-01T00:17:51;101718.47;;;16.08;79.20
24013;BME280;12220;50.194;18.948;2022-08-01T00:20:05;101711.30;;;16.06;79.23
24013;BME280;12220;50.194;18.948;2022-08-01T00:22:10;101711.41;;;16.04;79.19
24013;BME280;12220;50.194;18.948;2022-08-01T00:24:11;101708.77;;;16.02;79.25
24013;BME280;12220;50.194;18.948;2022-08-01T00:26:13;101713.43;;;16.02;79.30
24013;BME280;12220;50.194;18.948;2022-08-01T00:28:17;101700.60;;;16.01;79.35
24013;BME280;12220;50.194;18.948;2022-08-01T00:30:19;101701.48;;;16.01;79.38
24013;BME280;12220;50.194;18.948;2022-08-01T00:32:21;101700.60;;;16.01;79.29
24013;BME280;12220;50.194;18.948;2022-08-01T00:34:22;101707.91;;;16.02;79.22
24013;BME280;12220;50.194;18.948;2022-08-01T00:36:32;101703.49;;;15.99;79.17
24013;BME280;12220;50.194;18.948;2022-08-01T00:38:33;101697.97;;;15.99;79.14
24013;BME280;12220;50.194;18.948;2022-08-01T00:40:34;101703.49;;;15.99;79.15
24013;BME280;12220;50.194;18.948;2022-08-01T00:42:36;101708.15;;;15.99;79.11
24013;BME280;12220;50.194;18.948;2022-08-01T00:44:47;101709.02;;;15.99;79.01
24013;BME280;12220;50.194;18.948;2022-08-01T00:46:48;101702.71;;;15.97;78.90
24013;BME280;12220;50.194;18.948;2022-08-01T00:48:50;101713.88;;;15.96;78.79
24013;BME280;12220;50.194;18.948;2022-08-01T00:50:51;101713.01;;;15.95;78.68
24013;BME280;12220;50.194;18.948;2022-08-01T00:53:02;101704.85;;;15.94;78.63
24013;BME280;12220;50.194;18.948;2022-08-01T00:55:04;101715.27;;;15.90;78.59
24013;BME280;12220;50.194;18.948;2022-08-01T00:59:31;101712.09;;;15.83;78.32
24013;BME280;12220;50.194;18.948;2022-08-01T01:01:33;101714.19;;;15.80;78.23
24013;BME280;12220;50.194;18.948;2022-08-01T01:03:38;101720.15;;;15.74;78.17
24013;BME280;12220;50.194;18.948;2022-08-01T01:05:48;101716.88;;;15.68;78.11
24013;BME280;12220;50.194;18.948;2022-08-01T01:08:00;101723.75;;;15.63;78.08
24013;BME280;12220;50.194;18.948;2022-08-01T01:10:14;101721.34;;;15.58;78.11
24013;BME280;12220;50.194;18.948;2022-08-01T01:12:28;101725.32;;;15.54;78.15
24013;BME280;12220;50.194;18.948;2022-08-01T01:14:36;101733.84;;;15.51;78.16
24013;BME280;12220;50.194;18.948;2022-08-01T01:16:40;101717.60;;;15.46;78.07
24013;BME280;12220;50.194;18.948;2022-08-01T01:18:47;101712.43;;;15.42;78.02
24013;BME280;12220;50.194;18.948;2022-08-01T01:29:49;101701.34;;;15.30;78.35
24013;BME280;12220;50.194;18.948;2022-08-01T01:32:07;101698.59;;;15.30;78.47
24013;BME280;12220;50.194;18.948;2022-08-01T01:34:20;101706.86;;;15.30;78.32
24013;BME280;12220;50.194;18.948;2022-08-01T01:36:26;101704.98;;;15.31;78.28
24013;BME280;12220;50.194;18.948;2022-08-01T01:38:36;101697.68;;;15.30;78.28
24013;BME280;12220;50.194;18.948;2022-08-01T01:40:39;101694.91;;;15.30;78.27
24013;BME280;12220;50.194;18.948;2022-08-01T01:42:43;101696.81;;;15.29;78.13
24013;BME280;12220;50.194;18.948;2022-08-01T01:44:46;101702.56;;;15.26;77.95
24013;BME280;12220;50.194;18.948;2022-08-01T01:46:51;101700.04;;;15.23;77.90
24013;BME280;12220;50.194;18.948;2022-08-01T01:48:55;101706.66;;;15.21;77.92
24013;BME280;12220;50.194;18.948;2022-08-01T01:50:59;101697.59;;;15.19;78.01
24013;BME280;12220;50.194;18.948;2022-08-01T01:53:02;101696.73;;;15.18;78.11
24013;BME280;12220;50.194;18.948;2022-08-01T01:55:07;101698.73;;;15.16;78.15
24013;BME280;12220;50.194;18.948;2022-08-01T01:57:10;101696.84;;;15.16;78.18
24013;BME280;12220;50.194;18.948;2022-08-01T01:59:13;101693.21;;;15.16;78.20
24013;BME280;12220;50.194;18.948;2022-08-01T02:01:15;101696.96;;;15.15;78.13
24013;BME280;12220;50.194;18.948;2022-08-01T02:03:19;101688.80;;;15.13;77.88
24013;BME280;12220;50.194;18.948;2022-08-01T02:05:25;101696.52;;;15.08;77.80
24013;BME280;12220;50.194;18.948;2022-08-01T02:07:29;101696.75;;;15.05;77.84
24013;BME280;12220;50.194;18.948;2022-08-01T02:09:31;101702.50;;;15.02;77.79
24013;BME280;12220;50.194;18.948;2022-08-01T02:11:37;101650.26;;;14.75;77.75
24013;BME280;12220;50.194;18.948;2022-08-01T02:13:40;101695.66;;;14.95;77.72
24013;BME280;12220;50.194;18.948;2022-08-01T02:15:51;101692.16;;;14.93;77.67
24013;BME280;12220;50.194;18.948;2022-08-01T02:18:01;101688.84;;;14.88;77.67
24013;BME280;12220;50.194;18.948;2022-08-01T02:20:04;101689.94;;;14.85;77.76
24013;BME280;12220;50.194;18.948;2022-08-01T02:24:32;101687.29;;;14.84;77.87
24013;BME280;12220;50.194;18.948;2022-08-01T02:26:38;101682.80;;;14.83;77.87
24013;BME280;12220;50.194;18.948;2022-08-01T02:28:49;101685.55;;;14.83;77.91
24013;BME280;12220;50.194;18.948;2022-08-01T02:31:06;101685.55;;;14.83;77.91
24013;BME280;12220;50.194;18.948;2022-08-01T02:33:17;101696.58;;;14.83;77.85
24013;BME280;12220;50.194;18.948;2022-08-01T02:35:26;101690.39;;;14.79;77.70
24013;BME280;12220;50.194;18.948;2022-08-01T02:37:31;101698.89;;;14.76;77.67
24013;BME280;12220;50.194;18.948;2022-08-01T02:39:35;101689.86;;;14.74;77.66
24013;BME280;12220;50.194;18.948;2022-08-01T02:41:47;101689.07;;;14.72;77.59
24013;BME280;12220;50.194;18.948;2022-08-01T02:43:52;101683.79;;;14.69;77.68
24013;BME280;12220;50.194;18.948;2022-08-01T02:46:00;101686.66;;;14.67;77.75
24013;BME280;12220;50.194;18.948;2022-08-01T02:48:08;101696.81;;;14.67;77.76
24013;BME280;12220;50.194;18.948;2022-08-01T02:50:12;101694.06;;;14.67;77.73
24013;BME280;12220;50.194;18.948;2022-08-01T02:52:23;101697.69;;;14.67;77.73
24013;BME280;12220;50.194;18.948;2022-08-01T02:54:28;101688.66;;;14.65;77.72
24013;BME280;12220;50.194;18.948;2022-08-01T02:56:31;101696.81;;;14.67;77.74
24013;BME280;12220;50.194;18.948;2022-08-01T02:58:37;101695.05;;;14.66;77.67
24013;BME280;12220;50.194;18.948;2022-08-01T03:00:44;101697.04;;;14.63;77.58
24013;BME280;12220;50.194;18.948;2022-08-01T03:02:47;101688.92;;;14.60;77.55
24013;BME280;12220;50.194;18.948;2022-08-01T03:04:52;101694.56;;;14.59;77.63
24013;BME280;12220;50.194;18.948;2022-08-01T03:06:55;101693.69;;;14.58;77.63
24013;BME280;12220;50.194;18.948;2022-08-01T03:09:04;101700.30;;;14.56;77.47
24013;BME280;12220;50.194;18.948;2022-08-01T03:11:06;101697.87;;;14.51;77.43
24013;BME280;12220;50.194;18.948;2022-08-01T03:13:09;101701.84;;;14.47;77.43
24013;BME280;12220;50.194;18.948;2022-08-01T03:15:13;101698.31;;;14.45;77.48
24013;BME280;12220;50.194;18.948;2022-08-01T03:17:18;101688.39;;;14.42;77.53
24013;BME280;12220;50.194;18.948;2022-08-01T03:19:20;101494.61;;;13.26;77.48
24013;BME280;12220;50.194;18.948;2022-08-01T03:21:25;101691.26;;;14.41;77.61
24013;BME280;12220;50.194;18.948;2022-08-01T03:23:32;101694.88;;;14.41;77.66
24013;BME280;12220;50.194;18.948;2022-08-01T03:25:38;101696.77;;;14.41;77.62
24013;BME280;12220;50.194;18.948;2022-08-01T03:27:54;101692.23;;;14.40;77.59
24013;BME280;12220;50.194;18.948;2022-08-01T03:29:58;101690.50;;;14.39;77.54
24013;BME280;12220;50.194;18.948;2022-08-01T03:32:01;101699.86;;;14.36;77.39
24013;BME280;12220;50.194;18.948;2022-08-01T03:34:03;101706.46;;;14.34;77.35
24013;BME280;12220;50.194;18.948;2022-08-01T03:36:09;101698.31;;;14.32;77.40
24013;BME280;12220;50.194;18.948;2022-08-01T03:38:13;101705.70;;;14.32;77.47
24013;BME280;12220;50.194;18.948;2022-08-01T03:40:25;101695.66;;;14.30;77.55
24013;BME280;12220;50.194;18.948;2022-08-01T03:42:35;101703.81;;;14.32;77.57
24013;BME280;12220;50.194;18.948;2022-08-01T03:44:39;101704.91;;;14.29;77.43
24013;BME280;12220;50.194;18.948;2022-08-01T03:46:50;101723.43;;;14.27;77.42
24013;BME280;12220;50.194;18.948;2022-08-01T03:48:55;101707.13;;;14.24;77.47
24013;BME280;12220;50.194;18.948;2022-08-01T03:50:59;101707.34;;;14.21;77.51
24013;BME280;12220;50.194;18.948;2022-08-01T03:53:05;101703.69;;;14.21;77.55
24013;BME280;12220;50.194;18.948;2022-08-01T03:55:09;101702.91;;;14.19;77.60
24013;BME280;12220;50.194;18.948;2022-08-01T03:57:13;101710.28;;;14.18;77.60
24013;BME280;12220;50.194;18.948;2022-08-01T03:59:16;101701.16;;;14.18;77.62
24013;BME280;12220;50.194;18.948;2022-08-01T04:01:19;101705.79;;;14.17;77.74
24013;BME280;12220;50.194;18.948;2022-08-01T04:03:20;101714.80;;;14.19;77.83
24013;BME280;12220;50.194;18.948;2022-08-01T04:05:22;101712.05;;;14.19;77.84
24013;BME280;12220;50.194;18.948;2022-08-01T04:07:29;101589.69;;;13.30;77.77
24013;BME280;12220;50.194;18.948;2022-08-01T04:09:31;101710.86;;;14.23;77.85
24013;BME280;12220;50.194;18.948;2022-08-01T04:11:35;101700.71;;;14.24;77.84
24013;BME280;12220;50.194;18.948;2022-08-01T04:13:37;101706.11;;;14.25;77.92
24013;BME280;12220;50.194;18.948;2022-08-01T04:15:38;101702.38;;;14.26;77.95
24013;BME280;12220;50.194;18.948;2022-08-01T04:17:40;101710.52;;;14.28;77.93
24013;BME280;12220;50.194;18.948;2022-08-01T04:19:50;101714.19;;;14.28;77.84
24013;BME280;12220;50.194;18.948;2022-08-01T04:21:51;101713.40;;;14.26;77.84
24013;BME280;12220;50.194;18.948;2022-08-01T04:23:54;101714.27;;;14.27;77.86
24013;BME280;12220;50.194;18.948;2022-08-01T04:25:59;101715.16;;;14.27;77.87
24013;BME280;12220;50.194;18.948;2022-08-01T04:28:05;101711.51;;;14.27;77.84
24013;BME280;12220;50.194;18.948;2022-08-01T04:30:12;101711.73;;;14.24;77.73
24013;BME280;12220;50.194;18.948;2022-08-01T04:32:15;101710.86;;;14.23;77.79
24013;BME280;12220;50.194;18.948;2022-08-01T04:34:22;101709.98;;;14.23;77.96
24013;BME280;12220;50.194;18.948;2022-08-01T04:36:25;101704.48;;;14.23;78.04
24013;BME280;12220;50.194;18.948;2022-08-01T04:38:28;101710.86;;;14.23;78.12
24013;BME280;12220;50.194;18.948;2022-08-01T04:40:32;101713.50;;;14.25;78.21
24013;BME280;12220;50.194;18.948;2022-08-01T04:42:36;101706.00;;;14.27;78.34
24013;BME280;12220;50.194;18.948;2022-08-01T04:44:38;101708.56;;;14.30;78.42
24013;BME280;12220;50.194;18.948;2022-08-01T04:46:40;101711.10;;;14.33;78.50
24013;BME280;12220;50.194;18.948;2022-08-01T04:48:43;101713.63;;;14.36;78.52
24013;BME280;12220;50.194;18.948;2022-08-01T04:50:48;101722.67;;;14.38;78.52
24013;BME280;12220;50.194;18.948;2022-08-01T04:52:51;101718.82;;;14.41;78.50
24013;BME280;12220;50.194;18.948;2022-08-01T04:54:52;101714.05;;;14.43;78.57
24013;BME280;12220;50.194;18.948;2022-08-01T04:56:54;101722.22;;;14.44;78.66
24013;BME280;12220;50.194;18.948;2022-08-01T04:59:00;101710.21;;;14.45;78.76
24013;BME280;12220;50.194;18.948;2022-08-01T05:01:13;101716.41;;;14.49;78.88
24013;BME280;12220;50.194;18.948;2022-08-01T05:05:05;101717.84;;;14.55;79.02
24013;BME280;12220;50.194;18.948;2022-08-01T05:07:12;101725.90;;;14.58;79.13
24013;BME280;12220;50.194;18.948;2022-08-01T05:09:14;101727.45;;;14.62;79.21
24013;BME280;12220;50.194;18.948;2022-08-01T05:11:19;101733.63;;;14.66;79.21
24013;BME280;12220;50.194;18.948;2022-08-01T05:13:22;101722.50;;;14.67;79.31
24013;BME280;12220;50.194;18.948;2022-08-01T05:15:24;101727.90;;;14.69;79.45
24013;BME280;12220;50.194;18.948;2022-08-01T05:17:25;101727.67;;;14.72;79.66
24013;BME280;12220;50.194;18.948;2022-08-01T05:19:35;101726.47;;;14.76;79.84
24013;BME280;12220;50.194;18.948;2022-08-01T05:21:37;101724.38;;;14.79;79.99
24013;BME280;12220;50.194;18.948;2022-08-01T05:23:39;101713.99;;;14.83;80.13
24013;BME280;12220;50.194;18.948;2022-08-01T05:25:40;101711.88;;;14.87;80.35
24013;BME280;12220;50.194;18.948;2022-08-01T05:27:49;101715.96;;;14.94;80.55
24013;BME280;12220;50.194;18.948;2022-08-01T05:29:50;101716.63;;;14.97;80.77
24013;BME280;12220;50.194;18.948;2022-08-01T05:31:55;101711.53;;;15.04;80.95
24013;BME280;12220;50.194;18.948;2022-08-01T05:33:58;101710.20;;;15.10;81.11
24013;BME280;12220;50.194;18.948;2022-08-01T05:36:04;101705.13;;;15.16;81.25
24013;BME280;12220;50.194;18.948;2022-08-01T05:38:06;101709.30;;;15.22;81.44
24013;BME280;12220;50.194;18.948;2022-08-01T05:40:08;101708.84;;;15.28;81.61
24013;BME280;12220;50.194;18.948;2022-08-01T05:42:09;101713.02;;;15.34;81.79
24013;BME280;12220;50.194;18.948;2022-08-01T05:44:18;101707.94;;;15.41;81.93
24013;BME280;12220;50.194;18.948;2022-08-01T05:46:20;101701.94;;;15.47;82.13
24013;BME280;12220;50.194;18.948;2022-08-01T05:48:21;101712.27;;;15.56;82.39
24013;BME280;12220;50.194;18.948;2022-08-01T05:50:22;101705.29;;;15.63;82.54
24013;BME280;12220;50.194;18.948;2022-08-01T05:52:33;101704.81;;;15.69;82.65
24013;BME280;12220;50.194;18.948;2022-08-01T05:54:35;101702.36;;;15.78;82.87
24013;BME280;12220;50.194;18.948;2022-08-01T05:56:36;101704.54;;;15.85;83.13
24013;BME280;12220;50.194;18.948;2022-08-01T05:58:40;101702.08;;;15.94;83.32
24013;BME280;12220;50.194;18.948;2022-08-01T06:00:48;101705.14;;;16.02;83.50
24013;BME280;12220;50.194;18.948;2022-08-01T06:02:50;101712.95;;;16.08;83.69
24013;BME280;12220;50.194;18.948;2022-08-01T06:04:51;101706.80;;;16.16;83.87
24013;BME280;12220;50.194;18.948;2022-08-01T06:06:52;101711.71;;;16.24;84.07
24013;BME280;12220;50.194;18.948;2022-08-01T06:09:03;101712.78;;;16.34;84.21
24013;BME280;12220;50.194;18.948;2022-08-01T06:11:05;101717.70;;;16.42;84.21
24013;BME280;12220;50.194;18.948;2022-08-01T06:13:06;101718.84;;;16.50;84.28
24013;BME280;12220;50.194;18.948;2022-08-01T06:15:08;101724.40;;;16.62;84.33
24013;BME280;12220;50.194;18.948;2022-08-01T06:17:18;101720.76;;;16.72;84.35
24013;BME280;12220;50.194;18.948;2022-08-01T06:19:19;101734.60;;;16.84;84.47
24013;BME280;12220;50.194;18.948;2022-08-01T06:21:21;101722.55;;;16.96;84.34
24013;BME280;12220;50.194;18.948;2022-08-01T06:23:22;101724.34;;;17.08;84.05
24013;BME280;12220;50.194;18.948;2022-08-01T06:25:33;101728.84;;;17.21;83.70
24013;BME280;12220;50.194;18.948;2022-08-01T06:27:35;101725.33;;;17.30;83.27
24013;BME280;12220;50.194;18.948;2022-08-01T06:29:36;101727.32;;;17.39;82.87
24013;BME280;12220;50.194;18.948;2022-08-01T06:31:37;101718.10;;;17.50;82.44
24013;BME280;12220;50.194;18.948;2022-08-01T06:33:48;101722.75;;;17.61;82.10
24013;BME280;12220;50.194;18.948;2022-08-01T06:35:49;101716.42;;;17.70;81.69
24013;BME280;12220;50.194;18.948;2022-08-01T06:37:51;101718.43;;;17.80;81.38
24013;BME280;12220;50.194;18.948;2022-08-01T06:39:52;101719.53;;;17.88;81.09
24013;BME280;12220;50.194;18.948;2022-08-01T06:42:03;101714.98;;;17.99;80.84
24013;BME280;12220;50.194;18.948;2022-08-01T06:44:04;101720.86;;;18.05;80.57
24013;BME280;12220;50.194;18.948;2022-08-01T06:46:06;101726.77;;;18.12;80.22
24013;BME280;12220;50.194;18.948;2022-08-01T06:48:10;101719.55;;;18.21;79.94
24013;BME280;12220;50.194;18.948;2022-08-01T06:50:18;101713.31;;;18.28;79.71
24013;BME280;12220;50.194;18.948;2022-08-01T06:52:22;101718.93;;;18.38;79.33
24013;BME280;12220;50.194;18.948;2022-08-01T06:54:23;101719.89;;;18.49;79.09
24013;BME280;12220;50.194;18.948;2022-08-01T06:56:25;101717.92;;;18.60;78.89
24013;BME280;12220;50.194;18.948;2022-08-01T06:58:35;101720.76;;;18.70;78.76
24013;BME280;12220;50.194;18.948;2022-08-01T07:00:37;101720.68;;;18.81;78.44
24013;BME280;12220;50.194;18.948;2022-08-01T07:02:38;101721.64;;;18.92;77.95
24013;BME280;12220;50.194;18.948;2022-08-01T07:04:41;101722.28;;;19.05;77.18
24013;BME280;12220;50.194;18.948;2022-08-01T07:06:47;101069.20;;;14.78;76.24
24013;BME280;12220;50.194;18.948;2022-08-01T07:08:49;101723.83;;;19.29;75.83
24013;BME280;12220;50.194;18.948;2022-08-01T07:10:50;101715.25;;;19.42;75.35
24013;BME280;12220;50.194;18.948;2022-08-01T07:12:51;101719.55;;;19.56;75.06
24013;BME280;12220;50.194;18.948;2022-08-01T07:15:04;101712.96;;;19.66;74.26
24013;BME280;12220;50.194;18.948;2022-08-01T07:17:05;101706.38;;;19.77;74.17
24013;BME280;12220;50.194;18.948;2022-08-01T07:19:10;101709.83;;;19.91;74.28
24013;BME280;12220;50.194;18.948;2022-08-01T07:21:11;101709.50;;;20.03;74.18
24013;BME280;12220;50.194;18.948;2022-08-01T07:23:17;101710.98;;;20.17;73.68
24013;BME280;12220;50.194;18.948;2022-08-01T07:25:19;101714.48;;;20.29;73.61
24013;BME280;12220;50.194;18.948;2022-08-01T07:27:23;101707.00;;;20.40;73.39
24013;BME280;12220;50.194;18.948;2022-08-01T07:29:25;101708.76;;;20.50;72.47
24013;BME280;12220;50.194;18.948;2022-08-01T07:31:32;101704.91;;;20.61;72.27
24013;BME280;12220;50.194;18.948;2022-08-01T07:33:33;101717.24;;;20.68;72.00
24013;BME280;12220;50.194;18.948;2022-08-01T07:35:34;101711.65;;;20.78;72.07
24013;BME280;12220;50.194;18.948;2022-08-01T07:37:39;101718.93;;;20.89;72.20
24013;BME280;12220;50.194;18.948;2022-08-01T07:39:47;101715.22;;;20.98;71.83
24013;BME280;12220;50.194;18.948;2022-08-01T07:41:48;101711.70;;;21.06;71.28
24013;BME280;12220;50.194;18.948;2022-08-01T07:43:50;101715.47;;;21.15;70.96
24013;BME280;12220;50.194;18.948;2022-08-01T07:45:52;101710.14;;;21.21;70.53
24013;BME280;12220;50.194;18.948;2022-08-01T07:48:05;101700.13;;;21.29;70.04
24013;BME280;12220;50.194;18.948;2022-08-01T07:50:10;101705.98;;;21.35;69.19
24013;BME280;12220;50.194;18.948;2022-08-01T07:52:13;101707.11;;;21.42;68.65
24013;BME280;12220;50.194;18.948;2022-08-01T07:54:14;101708.41;;;21.48;68.43
24013;BME280;12220;50.194;18.948;2022-08-01T07:56:17;101723.51;;;21.55;68.43
24013;BME280;12220;50.194;18.948;2022-08-01T07:58:19;101702.18;;;21.64;68.47
24013;BME280;12220;50.194;18.948;2022-08-01T08:00:22;101699.14;;;21.75;68.47
24013;BME280;12220;50.194;18.948;2022-08-01T08:02:23;101705.68;;;21.84;67.91
24013;BME280;12220;50.194;18.948;2022-08-01T08:04:32;101702.98;;;21.92;67.06
24013;BME280;12220;50.194;18.948;2022-08-01T08:06:33;101693.27;;;21.97;67.40
24013;BME280;12220;50.194;18.948;2022-08-01T08:08:34;101690.73;;;22.03;66.88
24013;BME280;12220;50.194;18.948;2022-08-01T08:10:36;101705.23;;;22.07;67.08
24013;BME280;12220;50.194;18.948;2022-08-01T08:12:47;101699.15;;;22.11;67.43
24013;BME280;12220;50.194;18.948;2022-08-01T08:14:49;101702.52;;;22.15;67.56
24013;BME280;12220;50.194;18.948;2022-08-01T08:16:51;101706.73;;;22.19;67.62
24013;BME280;12220;50.194;18.948;2022-08-01T08:18:52;101707.11;;;22.24;67.60
24013;BME280;12220;50.194;18.948;2022-08-01T08:21:02;101504.26;;;20.92;67.29
24013;BME280;12220;50.194;18.948;2022-08-01T08:23:03;101711.75;;;22.34;67.20
24013;BME280;12220;50.194;18.948;2022-08-01T08:25:15;101712.32;;;22.37;65.86
24013;BME280;12220;50.194;18.948;2022-08-01T08:27:16;101714.63;;;22.42;65.11
24013;BME280;12220;50.194;18.948;2022-08-01T08:29:20;101714.30;;;22.45;65.40
24013;BME280;12220;50.194;18.948;2022-08-01T08:31:22;101716.05;;;22.46;65.08
24013;BME280;12220;50.194;18.948;2022-08-01T08:33:27;101711.01;;;22.50;64.86
24013;BME280;12220;50.194;18.948;2022-08-01T08:35:28;101708.05;;;22.51;65.06
24013;BME280;12220;50.194;18.948;2022-08-01T08:37:36;101713.01;;;22.57;65.16
24013;BME280;12220;50.194;18.948;2022-08-01T08:39:37;101714.41;;;22.61;64.52
24013;BME280;12220;50.194;18.948;2022-08-01T08:41:39;101715.84;;;22.66;64.47
24013;BME280;12220;50.194;18.948;2022-08-01T08:43:41;101716.23;;;22.71;63.88
24013;BME280;12220;50.194;18.948;2022-08-01T08:45:50;101719.40;;;22.76;63.81
24013;BME280;12220;50.194;18.948;2022-08-01T08:47:54;101720.83;;;22.80;63.69
24013;BME280;12220;50.194;18.948;2022-08-01T08:49:56;101721.55;;;22.82;63.51
24013;BME280;12220;50.194;18.948;2022-08-01T08:52:00;101717.37;;;22.86;63.61
24013;BME280;12220;50.194;18.948;2022-08-01T08:54:05;101727.17;;;22.90;63.69
24013;BME280;12220;50.194;18.948;2022-08-01T08:56:08;101721.25;;;22.93;63.29
24013;BME280;12220;50.194;18.948;2022-08-01T08:58:14;101724.60;;;22.97;62.89
24013;BME280;12220;50.194;18.948;2022-08-01T09:00:18;101724.27;;;23.00;63.19
24013;BME280;12220;50.194;18.948;2022-08-01T09:02:20;101721.70;;;23.07;62.95
24013;BME280;12220;50.194;18.948;2022-08-01T09:04:22;101727.85;;;23.10;62.68
24013;BME280;12220;50.194;18.948;2022-08-01T09:06:24;101725.63;;;23.14;62.86
24013;BME280;12220;50.194;18.948;2022-08-01T09:08:25;101723.18;;;23.19;62.75
24013;BME280;12220;50.194;18.948;2022-08-01T09:10:34;101726.20;;;23.26;62.73
24013;BME280;12220;50.194;18.948;2022-08-01T09:12:38;101722.03;;;23.30;62.36
24013;BME280;12220;50.194;18.948;2022-08-01T09:14:46;101729.73;;;23.36;62.05
24013;BME280;12220;50.194;18.948;2022-08-01T09:19:10;101736.93;;;23.47;62.08
24013;BME280;12220;50.194;18.948;2022-08-01T09:21:15;101730.82;;;23.52;61.26
24013;BME280;12220;50.194;18.948;2022-08-01T09:27:43;101731.08;;;23.66;61.89
24013;BME280;12220;50.194;18.948;2022-08-01T09:29:44;101728.45;;;23.73;61.80
24013;BME280;12220;50.194;18.948;2022-08-01T09:31:45;101735.29;;;23.79;61.51
24013;BME280;12220;50.194;18.948;2022-08-01T09:33:52;101737.56;;;23.83;61.16
24013;BME280;12220;50.194;18.948;2022-08-01T09:35:57;101738.84;;;23.89;60.99
24013;BME280;12220;50.194;18.948;2022-08-01T09:40:13;101736.24;;;23.96;60.89
24013;BME280;12220;50.194;18.948;2022-08-01T09:44:39;101737.48;;;24.01;60.76
24013;BME280;12220;50.194;18.948;2022-08-01T09:46:50;101742.73;;;24.05;60.90
24013;BME280;12220;50.194;18.948;2022-08-01T09:49:01;101744.14;;;24.09;60.76
24013;BME280;12220;50.194;18.948;2022-08-01T09:51:03;101751.47;;;24.10;59.47
24013;BME280;12220;50.194;18.948;2022-08-01T09:53:15;101750.43;;;24.11;59.32
24013;BME280;12220;50.194;18.948;2022-08-01T09:55:21;101743.79;;;24.12;59.48
24013;BME280;12220;50.194;18.948;2022-08-01T09:57:23;101756.71;;;24.13;59.60
24013;BME280;12220;50.194;18.948;2022-08-01T10:01:46;101754.28;;;24.18;59.33
24013;BME280;12220;50.194;18.948;2022-08-01T10:06:21;101601.70;;;23.31;59.33
24013;BME280;12220;50.194;18.948;2022-08-01T10:13:16;101752.53;;;24.17;58.15
24013;BME280;12220;50.194;18.948;2022-08-01T10:15:18;101744.30;;;24.15;56.93
24013;BME280;12220;50.194;18.948;2022-08-01T10:17:24;101742.72;;;24.13;57.04
24013;BME280;12220;50.194;18.948;2022-08-01T10:19:27;101745.52;;;24.13;57.32
24013;BME280;12220;50.194;18.948;2022-08-01T10:21:32;101740.64;;;24.15;57.40
24013;BME280;12220;50.194;18.948;2022-08-01T10:23:38;101751.84;;;24.15;56.70
24013;BME280;12220;50.194;18.948;2022-08-01T10:25:41;101749.04;;;24.15;56.80
24013;BME280;12220;50.194;18.948;2022-08-01T10:27:49;101748.01;;;24.16;57.02
24013;BME280;12220;50.194;18.948;2022-08-01T10:29:56;101745.72;;;24.19;56.77
24013;BME280;12220;50.194;18.948;2022-08-01T10:31:58;101744.51;;;24.22;57.19
24013;BME280;12220;50.194;18.948;2022-08-01T10:34:00;101748.70;;;24.26;57.17
24013;BME280;12220;50.194;18.948;2022-08-01T10:36:02;101752.02;;;24.30;57.30
24013;BME280;12220;50.194;18.948;2022-08-01T10:38:05;101746.78;;;24.35;57.42
24013;BME280;12220;50.194;18.948;2022-08-01T10:40:07;101750.82;;;24.41;57.53
24013;BME280;12220;50.194;18.948;2022-08-01T10:42:11;101736.47;;;24.44;57.23
24013;BME280;12220;50.194;18.948;2022-08-01T10:44:13;101743.44;;;24.48;55.84
24013;BME280;12220;50.194;18.948;2022-08-01T10:46:19;101737.84;;;24.48;56.46
24013;BME280;12220;50.194;18.948;2022-08-01T10:48:26;101741.71;;;24.47;56.17
24013;BME280;12220;50.194;18.948;2022-08-01T10:50:40;101743.12;;;24.51;56.53
24013;BME280;12220;50.194;18.948;2022-08-01T10:55:04;101740.32;;;24.59;56.69
24013;BME280;12220;50.194;18.948;2022-08-01T10:57:06;101745.39;;;24.64;56.81
24013;BME280;12220;50.194;18.948;2022-08-01T10:59:24;101738.04;;;24.71;56.60
24013;BME280;12220;50.194;18.948;2022-08-01T11:01:27;101733.65;;;24.77;56.45
24013;BME280;12220;50.194;18.948;2022-08-01T11:03:35;101738.58;;;24.83;56.74
24013;BME280;12220;50.194;18.948;2022-08-01T11:05:36;101737.85;;;24.89;56.70
24013;BME280;12220;50.194;18.948;2022-08-01T11:07:47;101738.89;;;24.96;56.46
24013;BME280;12220;50.194;18.948;2022-08-01T11:10:04;101738.35;;;25.01;56.33
24013;BME280;12220;50.194;18.948;2022-08-01T11:12:18;101742.55;;;25.05;56.59
24013;BME280;12220;50.194;18.948;2022-08-01T11:14:25;101745.16;;;25.06;56.43
24013;BME280;12220;50.194;18.948;2022-08-01T11:16:28;101742.18;;;25.08;56.33
24013;BME280;12220;50.194;18.948;2022-08-01T11:18:31;101748.46;;;25.10;56.27
24013;BME280;12220;50.194;18.948;2022-08-01T11:20:34;101754.98;;;25.11;56.13
24013;BME280;12220;50.194;18.948;2022-08-01T11:24:54;101760.90;;;25.08;55.60